Terminal Aerodrome Forecast
Issued by NWS

Home | Current Version | Previous Version | Text Only | Print | Product List | Glossary On
Versions: 1 2 3 4 5 6 7 8 9 10 11 12 13
000
FTUS43 KEAX 171100
TAFSTJ
TAF
KSTJ 171120Z 1712/1812 34010KT P6SM BKN020
     FM171500 35009KT P6SM BKN120
     FM172300 VRB04KT P6SM SKC=

USA.gov is the U.S. government's official web portal to all federal, state and local government web resources and services.